Time;durP1;ratioP1;P1;durP2;ratioP2;P2;SDS_P1;SDS_P2;PMS_P1;PMS_P2;Temp;Humidity;BMP_temperature;BMP_pressure;BME280_temperature;BME280_humidity;BME280_pressure;Samples;Min_cycle;Max_cycle;Signal;HPM_P1;HPM_P2
2021/12/08 00:00:55;;;;;;;27.30;13.85;;;4.30;58.30;;;2.35;65.47;100568.66;8300423;28;20136;-86
2021/12/08 00:05:18;;;;;;;27.23;14.38;;;4.20;58.30;;;2.38;65.44;100578.94;8289759;28;20148;-86
2021/12/08 00:14:04;;;;;;;24.95;12.93;;;4.20;58.30;;;2.26;65.37;100568.91;8297422;28;20136;-87
2021/12/08 00:18:29;;;;;;;25.10;13.02;;;4.20;58.40;;;2.29;65.21;100573.97;8298880;28;20132;-86
2021/12/08 00:22:51;;;;;;;24.70;12.47;;;4.00;58.30;;;2.30;65.14;100571.38;8299855;28;20037;-87
2021/12/08 00:27:12;;;;;;;29.90;12.95;;;4.20;58.40;;;2.27;65.48;100562.84;8300759;28;20371;-86
2021/12/08 00:31:34;;;;;;;22.95;12.25;;;4.10;58.30;;;2.34;65.50;100567.00;8280060;28;20141;-86
2021/12/08 00:36:04;;;;;;;25.48;13.38;;;4.10;58.30;;;2.24;65.27;100545.75;8301025;28;20140;-86
2021/12/08 00:40:28;;;;;;;21.85;11.88;;;4.10;58.30;;;2.19;65.37;100527.84;8284809;28;20148;-87
2021/12/08 00:44:50;;;;;;;29.67;14.95;;;4.10;58.30;;;2.28;65.36;100551.69;8291412;28;20133;-87
2021/12/08 00:49:15;;;;;;;22.48;10.85;;;4.10;58.30;;;2.12;65.32;100515.97;8272837;28;20124;-86
2021/12/08 00:53:37;;;;;;;25.33;12.07;;;4.10;58.40;;;2.17;64.86;100513.31;8299104;28;20483;-87
2021/12/08 00:57:59;;;;;;;24.02;12.40;;;3.90;58.30;;;2.21;65.64;100520.94;8301381;28;20137;-86
2021/12/08 01:02:21;;;;;;;21.17;11.43;;;4.10;58.70;;;2.13;65.18;100491.94;8300098;28;20557;-86
2021/12/08 01:06:43;;;;;;;21.58;11.57;;;4.10;58.40;;;2.25;65.33;100519.13;8308639;28;20565;-87
2021/12/08 01:11:12;;;;;;;25.83;14.30;;;4.00;58.30;;;2.12;65.11;100500.53;8302389;28;20040;-87
2021/12/08 01:15:36;;;;;;;23.77;12.50;;;4.00;58.30;;;2.16;65.27;100496.13;8285943;28;20132;-86
2021/12/08 01:19:58;;;;;;;23.70;13.90;;;4.00;58.30;;;2.08;65.28;100478.31;8275354;28;20148;-85
2021/12/08 01:24:20;;;;;;;27.50;12.75;;;4.00;58.40;;;2.10;65.19;100463.66;8303213;28;20521;-87
2021/12/08 01:28:44;;;;;;;28.13;13.38;;;4.00;58.40;;;2.15;65.28;100466.13;8297550;28;20138;-86
2021/12/08 01:33:05;;;;;;;24.73;13.18;;;4.00;58.40;;;2.04;65.38;100450.94;8283785;28;20133;-86
2021/12/08 01:37:27;;;;;;;26.60;12.43;;;4.00;58.40;;;2.12;65.45;100454.16;8290719;28;20144;-87
2021/12/08 01:41:52;;;;;;;23.38;11.13;;;4.00;58.40;;;2.03;65.80;100432.97;8276921;28;20140;-86
2021/12/08 01:46:14;;;;;;;26.02;13.52;;;3.90;58.40;;;2.09;65.57;100443.94;8282544;28;20033;-86
2021/12/08 01:50:37;;;;;;;24.67;11.30;;;3.80;58.30;;;1.95;65.83;100415.13;8283917;28;20387;-86
2021/12/08 01:54:59;;;;;;;24.63;11.98;;;3.90;58.30;;;2.03;65.25;100426.09;8281845;28;20562;-85
2021/12/08 01:59:21;;;;;;;31.83;13.27;;;3.90;58.40;;;2.05;65.38;100426.03;8298589;28;20565;-87
2021/12/08 02:03:44;;;;;;;20.55;10.65;;;3.90;58.40;;;2.01;65.45;100411.56;8296014;28;20883;-86
2021/12/08 02:08:06;;;;;;;20.98;11.30;;;3.90;58.40;;;1.99;65.44;100399.53;8279551;28;20141;-87
2021/12/08 02:12:30;;;;;;;23.38;11.30;;;3.90;58.30;;;1.96;65.39;100398.78;8279164;28;20136;-87
2021/12/08 02:16:55;;;;;;;20.60;10.48;;;3.80;58.30;;;1.93;65.51;100402.28;8299415;28;20128;-85
2021/12/08 02:21:24;;;;;;;24.33;11.70;;;3.80;58.30;;;1.94;65.18;100397.97;8292145;28;20161;-86
2021/12/08 02:25:49;;;;;;;20.38;10.48;;;3.70;58.20;;;1.94;65.31;100403.13;8298454;28;20133;-86
2021/12/08 02:30:21;;;;;;;23.10;11.10;;;3.80;58.30;;;1.89;64.97;100392.09;8283642;28;20144;-87
2021/12/08 02:48:44;;;;;;;22.73;11.65;;;3.60;58.30;;;1.93;65.31;100391.97;8279325;28;20536;-87
2021/12/08 02:53:08;;;;;;;18.33;10.65;;;3.70;58.30;;;1.89;65.19;100376.63;8289778;28;20136;-86
2021/12/08 02:57:30;;;;;;;25.73;12.80;;;3.70;58.30;;;1.80;65.39;100370.00;8307253;28;20498;-85
2021/12/08 03:01:51;;;;;;;29.77;13.65;;;3.70;58.20;;;1.80;65.42;100366.59;8289511;28;20128;-86
2021/12/08 03:06:13;;;;;;;23.27;11.77;;;3.70;58.20;;;1.77;65.46;100360.63;8297067;28;20498;-86
2021/12/08 03:10:45;;;;;;;22.17;11.73;;;3.70;58.20;;;1.77;65.50;100358.03;8292195;28;20129;-86
2021/12/08 03:15:08;;;;;;;20.35;10.63;;;3.70;58.20;;;1.80;65.54;100364.84;8287617;28;20129;-86
2021/12/08 03:19:31;;;;;;;22.05;11.55;;;3.70;58.30;;;1.77;65.61;100360.63;8304584;28;20136;-86
2021/12/08 03:24:38;;;;;;;19.10;10.20;;;3.70;58.30;;;1.87;65.18;100370.69;8295212;28;20468;-86
2021/12/08 03:28:44;;;;;;;22.75;12.52;;;3.70;58.30;;;1.87;65.17;100360.41;8294542;28;20144;-86
2021/12/08 03:33:08;;;;;;;26.23;13.48;;;3.70;58.30;;;1.83;65.51;100356.19;8305533;28;20573;-86
2021/12/08 03:37:35;;;;;;;21.85;11.65;;;3.70;58.20;;;1.81;65.27;100338.25;8292182;28;20145;-87
2021/12/08 03:41:57;;;;;;;26.08;13.18;;;3.70;58.30;;;1.81;65.47;100335.66;8289230;28;20573;-86
2021/12/08 03:46:19;;;;;;;23.95;12.40;;;3.70;58.20;;;1.89;65.29;100345.75;8298904;28;20481;-86
2021/12/08 03:50:43;;;;;;;24.45;13.95;;;3.70;58.30;;;1.84;65.44;100334.75;8308663;28;20136;-86
2021/12/08 03:55:08;;;;;;;24.73;12.50;;;3.70;58.30;;;1.88;65.55;100346.63;8296262;28;20132;-86
2021/12/08 03:59:30;;;;;;;23.88;11.90;;;3.70;58.30;;;1.93;65.12;100362.81;8288898;28;20137;-86
2021/12/08 04:03:52;;;;;;;27.05;14.95;;;3.70;58.30;;;1.89;65.69;100356.91;8278998;28;20105;-87
2021/12/08 04:08:18;;;;;;;26.38;14.27;;;3.70;58.30;;;1.82;65.22;100337.34;8289284;28;20132;-86
2021/12/08 04:12:39;;;;;;;29.15;15.23;;;3.70;58.30;;;1.87;65.77;100350.09;8295120;28;20140;-85
2021/12/08 04:17:17;;;;;;;26.23;13.38;;;3.70;58.30;;;1.82;65.46;100329.63;8291327;28;20136;-87
2021/12/08 04:21:41;;;;;;;26.50;13.55;;;3.70;58.30;;;1.83;65.66;100323.56;8284754;28;20211;-87
2021/12/08 04:26:12;;;;;;;23.45;11.80;;;3.70;58.30;;;1.84;65.45;100332.16;8289698;28;20128;-86
2021/12/08 04:30:47;;;;;;;26.30;11.85;;;3.70;58.30;;;1.92;65.58;100337.97;8302509;28;20117;-87
2021/12/08 04:35:12;;;;;;;29.20;13.93;;;3.70;58.30;;;1.87;65.57;100326.94;8288246;28;20132;-87
2021/12/08 04:44:42;;;;;;;29.10;15.40;;;3.80;58.30;;;1.88;65.41;100342.34;8288836;28;20048;-86
2021/12/08 04:49:33;;;;;;;27.98;14.38;;;3.70;58.20;;;1.89;65.51;100351.75;8294256;28;20566;-85
2021/12/08 05:00:14;;;;;;;20.58;10.95;;;3.70;58.20;;;1.91;65.33;100338.84;8283413;28;20124;-86
2021/12/08 05:04:03;;;;;;;27.95;14.27;;;3.70;58.20;;;1.83;65.45;100331.31;8285909;28;20410;-86
2021/12/08 05:08:35;;;;;;;24.23;11.98;;;3.70;58.20;;;1.82;65.43;100341.66;8287075;28;20145;-85
2021/12/08 05:13:02;;;;;;;21.65;11.45;;;3.70;58.20;;;1.79;65.63;100340.00;8292987;28;20136;-87
2021/12/08 05:17:38;;;;;;;25.33;12.48;;;3.70;58.20;;;1.85;65.32;100342.41;8287037;28;20136;-86
2021/12/08 05:22:14;;;;;;;25.27;13.05;;;3.70;58.20;;;1.89;65.60;100340.59;8300182;28;20140;-82
2021/12/08 05:26:54;;;;;;;23.63;14.65;;;3.70;58.20;;;1.88;65.74;100328.63;8280788;28;20128;-87
2021/12/08 05:31:25;;;;;;;31.52;15.00;;;3.70;58.30;;;1.87;65.45;100337.25;8290426;28;20455;-83
2021/12/08 05:35:47;;;;;;;23.92;11.95;;;3.70;58.20;;;1.91;65.26;100331.94;8303861;28;20136;-86
2021/12/08 05:40:29;;;;;;;28.90;13.27;;;3.80;58.20;;;1.88;65.67;100336.34;8282991;28;20125;-85
2021/12/08 05:44:51;;;;;;;22.27;10.75;;;3.80;58.20;;;1.88;65.55;100329.47;8289964;28;20508;-84
2021/12/08 05:49:18;;;;;;;23.05;12.95;;;3.80;58.20;;;1.95;65.36;100338.72;8297955;28;20124;-85
2021/12/08 05:53:44;;;;;;;27.40;14.25;;;3.80;58.20;;;1.93;65.35;100332.75;8298023;28;20489;-89
2021/12/08 05:58:09;;;;;;;25.88;14.20;;;3.80;58.20;;;1.92;65.33;100327.66;8283257;28;20148;-84
2021/12/08 06:02:36;;;;;;;32.08;16.88;;;3.80;58.20;;;1.91;65.25;100325.97;8298723;28;20057;-89
2021/12/08 06:06:59;;;;;;;32.65;15.25;;;3.70;58.00;;;1.86;65.51;100318.34;8280307;28;20137;-84
2021/12/08 06:11:24;;;;;;;26.83;12.88;;;3.80;58.10;;;1.84;65.17;100330.44;8282896;28;20133;-84
2021/12/08 06:15:48;;;;;;;30.23;15.20;;;3.80;58.10;;;1.91;65.14;100341.41;8290344;28;20132;-86
2021/12/08 06:20:12;;;;;;;30.17;14.68;;;3.70;58.10;;;1.86;65.00;100335.53;8294398;28;20137;-86
2021/12/08 06:24:34;;;;;;;27.75;13.43;;;3.70;58.10;;;1.77;65.20;100334.03;8305363;28;20574;-83
2021/12/08 06:28:57;;;;;;;26.38;12.75;;;3.70;58.20;;;1.84;65.21;100338.16;8277045;28;20514;-83
2021/12/08 06:33:20;;;;;;;21.52;12.30;;;3.70;58.20;;;1.92;65.19;100349.09;8292579;28;20297;-82
2021/12/08 06:37:44;;;;;;;22.15;12.35;;;3.70;58.20;;;1.85;65.18;100337.25;8290274;28;20046;-85
2021/12/08 06:42:16;;;;;;;22.30;11.75;;;3.70;58.20;;;1.88;65.55;100341.50;8284710;28;20052;-82
2021/12/08 06:46:40;;;;;;;32.35;15.20;;;3.70;58.10;;;1.90;65.13;100347.44;8282079;28;20044;-86
2021/12/08 06:51:16;;;;;;;31.38;13.38;;;3.80;58.10;;;1.74;65.37;100316.09;8279514;28;20050;-86
2021/12/08 06:55:50;;;;;;;;;;;3.70;58.10;;;1.77;65.36;100327.16;8278826;28;20476;-86
2021/12/08 07:01:00;;;;;;;28.53;12.77;;;3.70;58.10;;;1.83;65.34;100340.75;8272597;28;20197;-87
2021/12/08 07:05:31;;;;;;;31.05;13.10;;;3.70;58.10;;;1.83;65.25;100343.34;8294769;28;20076;-86
2021/12/08 07:10:14;;;;;;;25.00;11.63;;;3.60;58.10;;;1.72;65.33;100323.00;8294201;28;20136;-88
2021/12/08 07:14:39;;;;;;;23.02;12.57;;;3.70;58.20;;;1.83;65.63;100330.47;8289692;28;20136;-86
2021/12/08 07:19:22;;;;;;;45.33;20.58;;;3.70;58.20;;;1.73;65.59;100306.69;8287536;28;20581;-86
2021/12/08 07:23:52;;;;;;;35.28;16.92;;;3.70;58.10;;;1.77;65.45;100313.44;8304738;28;20392;-87
2021/12/08 07:28:16;;;;;;;33.13;13.68;;;3.70;58.10;;;1.81;65.28;100316.78;8294821;28;20125;-88
2021/12/08 07:32:41;;;;;;;31.13;13.98;;;3.70;58.20;;;1.88;65.25;100320.91;8284502;28;20049;-85
2021/12/08 07:37:14;;;;;;;30.95;14.80;;;3.70;58.20;;;1.89;65.58;100323.44;8280252;28;20155;-86
2021/12/08 07:41:41;;;;;;;31.95;14.13;;;3.70;58.20;;;1.86;65.58;100307.22;8293907;28;20044;-85
2021/12/08 07:46:10;;;;;;;38.80;15.70;;;3.70;58.20;;;1.89;65.15;100296.81;8275920;28;20122;-84
2021/12/08 07:50:45;;;;;;;29.48;14.45;;;3.80;58.30;;;1.97;65.48;100312.91;8269175;28;20484;-84
2021/12/08 07:55:19;;;;;;;33.15;14.18;;;3.80;58.20;;;1.96;65.32;100313.81;8255200;28;20130;-85
2021/12/08 07:59:44;;;;;;;34.25;15.38;;;3.80;58.20;;;1.99;65.38;100306.00;8296893;28;20144;-85
2021/12/08 08:04:11;;;;;;;25.48;11.70;;;3.80;58.30;;;1.91;65.32;100277.03;8237626;28;20044;-86
2021/12/08 08:08:34;;;;;;;27.10;12.70;;;3.90;58.30;;;2.02;65.61;100287.88;8272196;28;20129;-87
2021/12/08 08:13:01;;;;;;;31.48;14.57;;;3.90;58.30;;;2.02;65.38;100285.31;8279732;28;20132;-86
2021/12/08 08:17:36;;;;;;;35.50;14.75;;;4.20;58.40;;;1.96;65.46;100283.75;8284784;28;20160;-86
2021/12/08 08:22:05;;;;;;;32.22;15.98;;;3.90;58.20;;;1.97;65.74;100279.44;8279708;28;20420;-85
2021/12/08 08:26:29;;;;;;;28.15;12.38;;;3.90;58.20;;;2.01;65.21;100270.75;8296027;28;20124;-87
2021/12/08 08:31:08;;;;;;;31.05;13.40;;;3.90;58.20;;;2.08;65.52;100282.59;8282447;28;20594;-85
2021/12/08 08:35:32;;;;;;;29.98;13.18;;;4.00;58.20;;;2.06;65.31;100274.06;8300530;28;20117;-90
2021/12/08 08:40:19;;;;;;;31.38;13.85;;;4.00;58.20;;;2.19;65.39;100284.88;8288154;28;20574;-88
2021/12/08 08:44:50;;;;;;;35.97;17.45;;;4.10;58.20;;;1.78;65.21;100217.31;8518462;23;20154;-85
2021/12/08 08:49:25;;;;;;;30.27;14.68;;;4.00;58.10;;;2.06;65.52;100263.75;8298996;28;20120;-86
2021/12/08 08:53:51;;;;;;;31.00;13.67;;;4.00;58.10;;;2.12;65.06;100279.03;8301431;28;20585;-89
2021/12/08 08:58:15;;;;;;;34.15;16.65;;;4.00;58.10;;;2.15;65.39;100278.94;8308027;28;20172;-85
2021/12/08 09:02:39;;;;;;;30.67;15.05;;;4.00;58.10;;;2.20;65.25;100284.81;8279606;28;20132;-87
2021/12/08 09:07:07;;;;;;;31.10;14.67;;;4.10;58.10;;;2.11;65.22;100261.06;8295925;28;20124;-86
2021/12/08 09:11:38;;;;;;;34.63;17.25;;;4.00;58.10;;;2.21;65.07;100273.66;8298535;28;20132;-83
2021/12/08 09:16:07;;;;;;;37.55;17.33;;;4.00;58.00;;;2.21;65.17;100265.91;8311625;28;20133;-91
2021/12/08 09:20:54;;;;;;;30.98;16.42;;;4.00;58.10;;;2.25;65.44;100253.78;8296749;28;20140;-82
2021/12/08 09:25:25;;;;;;;26.50;13.68;;;4.10;58.10;;;2.18;65.36;100227.34;8283081;28;20766;-92
2021/12/08 09:29:56;;;;;;;29.55;13.98;;;4.10;58.10;;;2.11;65.37;100215.56;8286567;28;20558;-81
2021/12/08 09:34:25;;;;;;;40.10;18.60;;;4.20;58.20;;;2.42;65.45;100261.03;8296750;28;20144;-89
2021/12/08 09:38:55;;;;;;;44.67;19.42;;;4.20;58.10;;;2.43;65.61;100249.81;8300816;28;20161;-89
2021/12/08 09:43:34;;;;;;;26.88;12.15;;;4.20;58.10;;;2.44;65.71;100241.22;8288929;28;20128;-87
2021/12/08 09:47:56;;;;;;;31.02;15.00;;;4.30;58.20;;;2.41;65.35;100233.56;8285605;28;20133;-84
2021/12/08 09:52:19;;;;;;;39.50;16.92;;;4.30;58.20;;;2.49;65.13;100241.09;8283852;28;20562;-84
2021/12/08 09:56:42;;;;;;;43.60;18.20;;;4.30;58.00;;;2.45;65.33;100230.00;8242892;23;20058;-81
2021/12/08 10:01:06;;;;;;;32.20;15.63;;;4.30;58.00;;;2.50;64.78;100237.59;8234071;28;20151;-81
2021/12/08 10:05:33;;;;;;;39.42;16.50;;;4.30;58.00;;;2.54;65.31;100245.22;8220654;28;20039;-80
2021/12/08 10:09:55;;;;;;;37.05;16.58;;;4.40;58.10;;;2.60;65.48;100242.44;8219338;28;20130;-82
2021/12/08 10:14:17;;;;;;;32.35;14.88;;;4.40;58.10;;;2.66;65.58;100255.13;8249358;28;20137;-81
2021/12/08 10:18:39;;;;;;;29.73;14.20;;;4.30;58.00;;;2.68;65.24;100247.38;8251137;28;20157;-80
2021/12/08 10:23:29;;;;;;;34.13;15.23;;;4.50;58.10;;;2.72;65.64;100227.47;8233782;28;20133;-81
2021/12/08 10:28:12;;;;;;;34.97;16.45;;;4.50;58.20;;;2.80;65.30;100235.81;8250681;28;20133;-81
2021/12/08 10:32:37;;;;;;;38.28;16.55;;;4.60;58.10;;;2.78;65.42;100220.41;8247427;28;20125;-81
2021/12/08 10:37:07;;;;;;;32.60;15.13;;;4.60;58.00;;;2.76;65.28;100209.31;8240399;28;20595;-81
2021/12/08 10:41:52;;;;;;;36.10;16.63;;;4.60;58.00;;;2.87;65.26;100221.84;8250267;28;20133;-80
2021/12/08 10:46:14;;;;;;;28.90;14.23;;;4.70;58.00;;;2.86;65.35;100215.00;8245369;28;20046;-81
2021/12/08 10:55:22;;;;;;;32.65;15.32;;;4.70;57.90;;;2.88;65.56;100185.69;8235074;28;20125;-81
2021/12/08 10:59:54;;;;;;;47.40;21.77;;;4.60;57.90;;;2.94;64.90;100192.38;8249099;28;20057;-81
2021/12/08 11:04:17;;;;;;;33.92;16.02;;;4.80;57.60;;;2.85;65.17;100157.44;8244511;28;20073;-81
2021/12/08 11:08:44;;;;;;;35.72;17.60;;;4.80;57.90;;;2.94;64.96;100171.75;8248102;28;20474;-81
2021/12/08 11:13:08;;;;;;;27.25;14.30;;;4.80;57.90;;;3.10;65.38;100188.41;8240970;28;20050;-81
2021/12/08 11:17:32;;;;;;;37.58;15.73;;;4.90;57.90;;;3.09;65.37;100189.31;8245906;28;20134;-81
2021/12/08 11:21:56;;;;;;;34.95;17.38;;;4.90;57.80;;;3.08;65.08;100174.75;8222953;28;20125;-81
2021/12/08 11:26:35;;;;;;;39.22;17.17;;;4.90;57.70;;;3.16;65.31;100186.53;8243111;28;20056;-83
2021/12/08 11:31:15;;;;;;;28.27;15.30;;;4.90;57.70;;;3.17;65.19;100178.75;8214195;28;20049;-82
2021/12/08 11:35:36;;;;;;;32.75;15.65;;;5.00;57.70;;;3.18;64.84;100177.84;8242059;28;20061;-82
2021/12/08 11:40:01;;;;;;;33.00;14.93;;;5.00;57.80;;;3.25;65.18;100171.59;8236353;28;20129;-82
2021/12/08 11:44:27;;;;;;;29.80;14.40;;;5.00;57.70;;;3.25;65.25;100169.00;8243564;28;20070;-81
2021/12/08 11:49:07;;;;;;;34.65;16.83;;;5.00;57.70;;;3.23;64.82;100168.22;8214994;28;20049;-82
2021/12/08 11:53:28;;;;;;;27.27;12.90;;;5.10;57.60;;;3.26;65.03;100146.63;8249097;28;20507;-82
2021/12/08 11:57:58;;;;;;;30.92;13.65;;;5.10;57.80;;;3.27;65.06;100140.59;8220045;28;20118;-83
2021/12/08 12:02:30;;;;;;;40.03;18.50;;;5.10;57.70;;;3.27;65.14;100131.09;8239720;28;20137;-84
2021/12/08 12:06:52;;;;;;;30.85;15.23;;;5.10;57.40;;;3.34;64.93;100142.03;8229758;28;20052;-81
2021/12/08 12:11:14;;;;;;;28.48;13.43;;;5.10;57.60;;;3.34;65.12;100144.63;8238165;28;20129;-82
2021/12/08 12:15:41;;;;;;;28.90;13.10;;;5.10;57.70;;;3.36;65.00;100158.31;8232356;28;20133;-81
2021/12/08 12:20:16;;;;;;;36.70;15.52;;;5.20;57.80;;;3.39;64.93;100176.28;8233276;28;20129;-81
2021/12/08 12:25:02;;;;;;;30.58;13.30;;;5.20;58.00;;;3.39;65.16;100163.38;8242277;28;20157;-81
2021/12/08 12:30:07;;;;;;;29.58;15.48;;;5.20;57.70;;;3.44;65.22;100171.81;8232308;28;20042;-83
2021/12/08 12:34:33;;;;;;;30.23;13.85;;;5.20;57.50;;;3.39;65.10;100168.53;8245744;28;20121;-82
2021/12/08 12:39:16;;;;;;;26.85;14.70;;;5.30;57.60;;;3.44;64.91;100184.69;8231222;28;20474;-83
2021/12/08 12:43:39;;;;;;;29.35;14.35;;;5.30;57.60;;;3.52;65.00;100174.13;8233923;28;20051;-83
2021/12/08 12:48:30;;;;;;;32.92;14.95;;;5.30;57.60;;;3.47;65.12;100176.00;8234713;28;20126;-84
2021/12/08 12:52:57;;;;;;;36.53;16.50;;;5.30;57.60;;;3.42;64.91;100147.78;8228674;28;20038;-83
2021/12/08 12:57:19;;;;;;;32.30;15.20;;;5.30;57.60;;;3.52;65.03;100161.22;8221604;28;20127;-84
2021/12/08 13:01:46;;;;;;;36.60;16.67;;;5.40;57.70;;;3.54;64.77;100146.53;8233915;28;20559;-83
2021/12/08 13:06:12;;;;;;;28.35;14.15;;;5.40;57.60;;;3.49;64.54;100132.94;8208033;28;20073;-83
2021/12/08 13:10:38;;;;;;;33.25;13.07;;;5.40;57.60;;;3.47;64.92;100125.22;8220851;28;20153;-83
2021/12/08 13:15:13;;;;;;;30.52;13.73;;;5.30;57.50;;;3.53;64.93;100130.16;8202869;28;20571;-85
2021/12/08 13:19:40;;;;;;;28.30;14.35;;;5.40;57.50;;;3.52;64.81;100146.56;8222569;28;20047;-83
2021/12/08 13:24:02;;;;;;;28.65;13.85;;;5.30;57.40;;;3.48;64.95;100147.59;8218003;28;20654;-82
2021/12/08 13:28:58;;;;;;;31.92;13.85;;;5.30;57.50;;;3.49;64.76;100158.75;8214973;28;20046;-83
2021/12/08 13:33:29;;;;;;;27.92;13.68;;;5.30;57.50;;;3.50;64.80;100161.25;8209639;28;20046;-83
2021/12/08 13:38:00;;;;;;;27.58;13.90;;;5.30;57.50;;;3.50;64.70;100176.75;8204652;28;20044;-84
2021/12/08 13:42:29;;;;;;;38.20;18.23;;;5.30;57.40;;;3.43;64.64;100167.53;8204786;28;20046;-83
2021/12/08 13:46:55;;;;;;;31.83;14.60;;;5.10;57.10;;;3.50;64.97;100186.22;8214012;28;20045;-83
2021/12/08 13:51:21;;;;;;;26.58;12.60;;;5.30;57.40;;;3.41;64.80;100171.06;8198668;28;20046;-80
2021/12/08 13:55:49;;;;;;;33.05;15.57;;;5.20;57.50;;;3.39;64.93;100178.84;8204177;28;20047;-83
2021/12/08 14:00:16;;;;;;;26.40;12.80;;;5.30;57.40;;;3.46;64.85;100185.50;8197839;28;20048;-82
2021/12/08 14:04:38;;;;;;;27.85;13.88;;;5.30;57.50;;;3.40;64.79;100175.38;8211490;28;20055;-84
2021/12/08 14:09:00;;;;;;;26.58;12.75;;;5.20;57.50;;;3.41;64.72;100176.22;8202938;28;20039;-84
2021/12/08 14:13:26;;;;;;;32.25;15.98;;;5.30;57.50;;;3.39;64.86;100180.59;8216667;28;20065;-87
2021/12/08 14:17:49;;;;;;;31.30;14.98;;;5.20;57.30;;;3.40;64.62;100177.94;8198740;28;20575;-86
2021/12/08 14:22:10;;;;;;;29.10;13.20;;;5.20;57.40;;;3.32;64.65;100164.47;8216734;28;20058;-85
2021/12/08 14:26:38;;;;;;;35.40;14.35;;;5.20;57.40;;;3.30;64.52;100163.69;8211205;28;20757;-85
2021/12/08 14:31:00;;;;;;;28.75;14.10;;;5.20;57.30;;;3.27;64.46;100153.50;8217416;28;20053;-85
2021/12/08 14:35:22;;;;;;;30.65;14.50;;;5.00;57.30;;;3.28;64.89;100157.75;8219179;28;20051;-85
2021/12/08 14:39:50;;;;;;;28.50;14.57;;;5.10;57.30;;;3.28;64.63;100161.16;8222537;28;20054;-85
2021/12/08 14:44:18;;;;;;;30.85;14.45;;;5.10;57.30;;;3.22;64.63;100152.81;8212229;28;20874;-85
2021/12/08 14:48:45;;;;;;;27.73;13.75;;;5.10;57.30;;;3.20;64.70;100144.25;8183771;28;20482;-85
2021/12/08 14:53:13;;;;;;;24.50;12.90;;;5.10;57.40;;;3.22;64.70;100152.81;8220578;28;20418;-83
2021/12/08 14:57:41;;;;;;;29.60;14.43;;;5.00;57.30;;;3.11;64.37;100140.28;8213692;28;20054;-86
2021/12/08 15:02:03;;;;;;;31.88;15.45;;;5.00;57.20;;;3.13;64.65;100137.63;8209148;28;20057;-85
2021/12/08 15:06:25;;;;;;;29.27;14.88;;;5.00;57.20;;;3.06;64.88;100145.56;8209336;28;20054;-85
2021/12/08 15:10:47;;;;;;;26.80;12.93;;;5.00;57.20;;;3.13;64.45;100153.94;8203731;28;20043;-86
2021/12/08 15:15:19;;;;;;;28.42;13.45;;;5.00;57.50;;;3.15;64.46;100159.88;8231887;28;20049;-85
2021/12/08 15:19:53;;;;;;;26.45;13.77;;;5.00;57.30;;;3.13;64.63;100168.56;8218127;28;20046;-85
2021/12/08 15:24:23;;;;;;;28.40;13.68;;;5.00;57.30;;;3.08;64.50;100179.06;8225017;28;20645;-84
2021/12/08 15:28:48;;;;;;;30.08;13.30;;;5.00;57.30;;;3.08;64.42;100192.81;8225677;28;20043;-85
2021/12/08 15:33:13;;;;;;;34.58;14.20;;;4.90;57.20;;;3.00;64.51;100196.53;8214813;28;20056;-85
2021/12/08 15:37:36;;;;;;;26.33;13.45;;;4.90;57.20;;;3.10;64.71;100215.94;8201272;28;20423;-84
2021/12/08 15:42:00;;;;;;;22.90;12.82;;;4.90;57.20;;;3.05;64.87;100210.97;8206794;28;20046;-83
2021/12/08 15:46:22;;;;;;;26.88;12.23;;;4.90;57.40;;;3.10;64.59;100206.47;8222072;28;20047;-85
2021/12/08 15:50:47;;;;;;;29.33;13.77;;;4.90;57.40;;;3.06;64.63;100199.75;8224123;28;20047;-86
2021/12/08 15:55:09;;;;;;;28.70;13.82;;;4.90;57.30;;;3.07;64.63;100205.72;8222680;28;20042;-84
2021/12/08 15:59:38;;;;;;;30.52;13.65;;;4.90;57.30;;;3.07;64.68;100205.72;8234846;28;20054;-84
2021/12/08 16:04:07;;;;;;;30.58;13.73;;;5.00;57.40;;;2.96;64.51;100190.59;8213331;28;20072;-84
2021/12/08 16:08:29;;;;;;;29.25;13.35;;;4.90;57.40;;;3.01;64.56;100193.88;8225522;28;20525;-83
2021/12/08 16:12:58;;;;;;;26.58;12.98;;;4.80;57.30;;;3.07;64.42;100206.56;8210130;28;20053;-83
2021/12/08 16:17:27;;;;;;;28.63;13.18;;;4.80;57.30;;;2.99;64.49;100207.72;8224646;28;20046;-86
2021/12/08 16:21:50;;;;;;;30.40;13.43;;;4.90;57.20;;;2.98;64.40;100204.31;8204813;28;20042;-83
2021/12/08 16:26:12;;;;;;;27.85;13.43;;;4.80;57.20;;;2.98;64.76;100203.47;8225686;28;20042;-85
2021/12/08 16:30:36;;;;;;;35.75;15.27;;;4.80;57.30;;;2.88;64.62;100187.44;8222425;28;20047;-86
2021/12/08 16:35:01;;;;;;;33.80;16.20;;;4.80;57.30;;;2.94;64.77;100201.88;8200519;28;20055;-85
2021/12/08 16:39:29;;;;;;;29.70;15.25;;;4.70;57.10;;;2.83;64.93;100191.91;8211562;28;20050;-85
2021/12/08 16:43:52;;;;;;;27.50;14.00;;;4.70;57.10;;;2.79;64.30;100169.69;8221353;28;20065;-84
2021/12/08 16:48:28;;;;;;;34.25;14.82;;;4.70;57.50;;;2.47;64.64;100111.44;8283608;23;20057;-88
2021/12/08 16:52:53;;;;;;;31.13;15.00;;;4.60;57.20;;;2.64;64.74;100137.50;8303553;28;20140;-88
2021/12/08 16:57:24;;;;;;;29.15;13.43;;;4.60;57.10;;;2.22;64.41;100079.56;8260731;28;20045;-88
2021/12/08 17:01:48;;;;;;;26.60;13.32;;;4.80;57.40;;;2.52;64.86;100130.19;8233765;28;20046;-90
2021/12/08 17:06:15;;;;;;;27.55;13.18;;;4.60;57.30;;;2.42;64.57;100109.00;8249093;28;20042;-89
2021/12/08 17:10:41;;;;;;;30.20;14.52;;;4.70;57.40;;;2.28;64.57;100088.81;8236333;28;20109;-89
2021/12/08 17:19:26;;;;;;;23.63;12.82;;;4.50;57.10;;;2.31;64.39;100093.03;8513259;23;20144;-92
2021/12/08 17:23:48;;;;;;;27.10;13.43;;;4.50;57.30;;;2.62;64.53;100170.25;8295784;28;20132;-89
2021/12/08 17:28:11;;;;;;;26.15;13.90;;;4.60;57.30;;;2.68;64.34;100185.50;8277130;28;20124;-94
2021/12/08 17:32:33;;;;;;;34.20;15.65;;;4.50;57.20;;;2.71;64.73;100182.00;8283332;28;20045;-94
2021/12/08 17:36:54;;;;;;;27.98;12.95;;;4.50;57.00;;;2.57;64.44;100174.69;8294907;28;20132;-93
2021/12/08 17:41:16;;;;;;;32.10;16.08;;;4.50;57.10;;;2.54;64.10;100165.31;8295344;28;20140;-92
2021/12/08 17:45:38;;;;;;;34.78;17.23;;;4.50;57.00;;;2.58;64.38;100184.94;8266519;28;20529;-93
2021/12/08 17:50:01;;;;;;;32.33;15.68;;;4.40;56.90;;;2.64;64.38;100187.31;8287067;28;20564;-93
2021/12/08 17:54:24;;;;;;;32.25;15.10;;;4.60;57.00;;;2.62;64.58;100199.44;8301006;28;20136;-93
2021/12/08 17:58:47;;;;;;;33.35;15.43;;;4.40;57.00;;;2.60;64.60;100197.78;8267786;28;20141;-93
2021/12/08 18:03:10;;;;;;;25.58;13.18;;;4.40;57.00;;;2.48;64.22;100168.06;8260502;28;20041;-93
2021/12/08 18:07:32;;;;;;;29.00;14.43;;;4.40;57.10;;;2.59;64.48;100170.31;8262889;28;20056;-93
2021/12/08 18:11:54;;;;;;;35.38;15.35;;;4.40;57.10;;;2.59;64.52;100181.50;8245818;28;20129;-93
2021/12/08 18:16:18;;;;;;;30.08;14.57;;;4.40;57.20;;;2.54;64.24;100185.94;8268507;28;20140;-90
2021/12/08 18:20:40;;;;;;;32.20;13.95;;;4.40;57.20;;;2.55;64.71;100189.34;8276399;28;20052;-93
2021/12/08 18:25:04;;;;;;;32.47;16.90;;;4.40;57.20;;;2.55;64.22;100203.06;8260552;28;20749;-92
2021/12/08 18:29:26;;;;;;;39.08;19.30;;;4.40;57.00;;;2.46;64.52;100184.47;8269879;28;20132;-91
2021/12/08 18:33:49;;;;;;;40.55;18.42;;;4.30;57.00;;;2.49;64.29;100208.41;8276344;28;20762;-96
2021/12/08 18:38:11;;;;;;;37.42;17.75;;;4.30;57.00;;;2.38;64.50;100202.75;8285027;28;20156;-95
2021/12/08 18:42:33;;;;;;;38.08;17.85;;;4.30;57.10;;;2.41;64.21;100169.16;8283809;28;20113;-95
2021/12/08 18:47:12;;;;;;;;;;;;;;;;;;;;;
2021/12/08 18:51:58;;;;;;;31.83;16.20;;;4.30;57.20;;;2.40;64.42;100198.38;8263865;28;20044;-94
2021/12/08 18:56:25;;;;;;;31.53;14.80;;;4.40;57.30;;;1.89;64.25;100137.22;8356189;23;20063;-95
2021/12/08 19:01:28;;;;;;;50.38;21.30;;;4.30;57.20;;;2.43;64.70;100226.63;8304408;28;20120;-96
2021/12/08 19:05:56;;;;;;;39.90;18.77;;;4.20;56.90;;;2.06;64.52;100171.06;8310765;28;20571;-93
2021/12/08 19:10:26;;;;;;;34.22;16.98;;;4.00;57.20;;;2.27;64.72;100212.50;8285573;28;20051;-95
2021/12/08 19:15:08;;;;;;;;;;;;;;;;;;;;;